createdAt,value
2022-10-13T00:01:57.375Z,9.97
2022-10-13T00:04:23.919Z,9.99
2022-10-13T00:06:50.256Z,9.98
2022-10-13T00:09:16.595Z,9.96
2022-10-13T00:11:42.928Z,10.01
2022-10-13T00:14:09.283Z,10.06
2022-10-13T00:16:36.009Z,10.06
2022-10-13T00:19:02.466Z,10.05
2022-10-13T00:21:29.530Z,10.08
2022-10-13T00:23:56.287Z,10.06
2022-10-13T00:26:24.330Z,10.04
2022-10-13T00:28:52.914Z,10.20
2022-10-13T00:31:25.632Z,10.13
2022-10-13T00:33:52.923Z,10.19
2022-10-13T00:36:20.210Z,10.26
2022-10-13T00:38:46.723Z,10.28
2022-10-13T00:41:13.394Z,10.34
2022-10-13T00:43:59.907Z,10.30
2022-10-13T00:46:29.983Z,10.21
2022-10-13T00:48:59.017Z,10.23
2022-10-13T00:51:30.101Z,10.17
2022-10-13T00:53:58.137Z,10.11
2022-10-13T00:56:26.111Z,10.09
2022-10-13T00:58:53.543Z,10.01
2022-10-13T01:01:19.991Z,10.02
2022-10-13T01:03:46.535Z,9.95
2022-10-13T01:06:14.164Z,9.90
2022-10-13T01:08:40.549Z,9.91
2022-10-13T01:11:18.772Z,9.90
2022-10-13T01:13:45.389Z,9.92
2022-10-13T01:16:45.116Z,9.94
2022-10-13T01:19:30.162Z,9.96
2022-10-13T01:22:29.495Z,9.98
2022-10-13T01:25:07.806Z,9.91
2022-10-13T01:27:56.000Z,9.83
2022-10-13T01:30:23.286Z,9.84
2022-10-13T01:33:04.244Z,9.81
2022-10-13T01:36:00.974Z,9.83
2022-10-13T01:38:48.860Z,9.74
2022-10-13T01:41:36.835Z,9.66
2022-10-13T01:44:20.875Z,9.58
2022-10-13T01:46:50.669Z,9.62
2022-10-13T01:49:19.769Z,9.63
2022-10-13T01:51:47.253Z,9.70
2022-10-13T01:54:13.567Z,9.68
2022-10-13T01:56:39.963Z,9.70
2022-10-13T01:59:11.326Z,9.70
2022-10-13T02:01:43.660Z,9.76
2022-10-13T02:04:23.442Z,9.80
2022-10-13T02:07:22.195Z,9.82
2022-10-13T02:09:54.318Z,9.77
2022-10-13T02:12:28.402Z,9.69
2022-10-13T02:14:57.068Z,9.54
2022-10-13T02:17:26.229Z,9.48
2022-10-13T02:19:54.165Z,9.51
2022-10-13T02:22:24.419Z,9.51
2022-10-13T02:24:50.968Z,9.49
2022-10-13T02:27:17.581Z,9.51
2022-10-13T02:29:56.119Z,9.50
2022-10-13T02:32:23.183Z,9.49
2022-10-13T02:34:50.429Z,9.49
2022-10-13T02:37:17.455Z,9.53
2022-10-13T02:39:43.883Z,9.60
2022-10-13T02:42:10.289Z,9.66
2022-10-13T02:44:36.615Z,9.63
2022-10-13T02:47:03.073Z,9.66
2022-10-13T02:49:29.418Z,9.72
2022-10-13T02:51:55.804Z,9.69
2022-10-13T02:54:22.146Z,9.77
2022-10-13T02:56:48.490Z,9.74
2022-10-13T02:59:14.936Z,9.76
2022-10-13T03:01:42.090Z,9.78
2022-10-13T03:04:08.969Z,9.84
2022-10-13T03:06:35.484Z,9.88
2022-10-13T03:09:01.863Z,9.90
2022-10-13T03:11:28.303Z,9.92
2022-10-13T03:13:54.699Z,9.95
2022-10-13T03:16:21.090Z,10.03
2022-10-13T03:18:47.433Z,10.01
2022-10-13T03:21:14.609Z,10.00
2022-10-13T03:23:40.968Z,9.99
2022-10-13T03:26:07.334Z,10.07
2022-10-13T03:28:34.242Z,10.01
2022-10-13T03:31:11.738Z,9.98
2022-10-13T03:33:39.307Z,9.92
2022-10-13T03:36:05.987Z,9.95
2022-10-13T03:38:33.982Z,10.09
2022-10-13T03:41:12.422Z,10.06
2022-10-13T03:43:39.017Z,9.98
2022-10-13T03:46:07.104Z,9.97
2022-10-13T03:48:35.286Z,10.02
2022-10-13T03:51:06.402Z,10.02
2022-10-13T03:53:33.284Z,10.05
2022-10-13T03:55:59.779Z,9.96
2022-10-13T03:58:28.950Z,9.86
2022-10-13T04:00:56.796Z,9.85
2022-10-13T04:03:24.325Z,9.92
2022-10-13T04:05:50.790Z,9.95
2022-10-13T04:08:18.188Z,9.94
2022-10-13T04:10:44.634Z,9.98
2022-10-13T04:13:11.164Z,10.07
2022-10-13T04:15:39.043Z,10.12
2022-10-13T04:18:07.228Z,10.12
2022-10-13T04:20:39.953Z,10.21
2022-10-13T04:23:07.508Z,10.25
2022-10-13T04:25:38.508Z,10.29
2022-10-13T04:28:06.014Z,10.26
2022-10-13T04:30:35.589Z,10.24
2022-10-13T04:33:02.309Z,10.18
2022-10-13T04:35:29.177Z,10.18
2022-10-13T04:37:57.869Z,10.18
2022-10-13T04:40:25.071Z,10.17
2022-10-13T04:42:51.895Z,10.20
2022-10-13T04:45:18.431Z,10.22
2022-10-13T04:47:44.876Z,10.20
2022-10-13T04:50:11.409Z,10.14
2022-10-13T04:52:37.825Z,10.07
2022-10-13T04:55:04.482Z,10.05
2022-10-13T04:57:30.912Z,10.04
2022-10-13T04:59:57.262Z,10.01
2022-10-13T05:02:23.588Z,10.04
2022-10-13T05:04:49.924Z,9.99
2022-10-13T05:07:18.541Z,9.96
2022-10-13T05:09:45.506Z,9.96
2022-10-13T05:12:11.877Z,9.93
2022-10-13T05:14:38.232Z,9.96
2022-10-13T05:17:04.675Z,9.97
2022-10-13T05:19:31.086Z,9.94
2022-10-13T05:21:57.444Z,9.87
2022-10-13T05:24:31.022Z,9.86
2022-10-13T05:26:57.759Z,9.86
2022-10-13T05:29:24.101Z,9.85
2022-10-13T05:31:50.503Z,9.85
2022-10-13T05:34:16.828Z,9.89
2022-10-13T05:36:43.244Z,9.94
2022-10-13T05:39:10.833Z,10.03
2022-10-13T05:41:38.780Z,10.09
2022-10-13T05:44:08.499Z,10.11
2022-10-13T05:46:35.460Z,10.13
2022-10-13T05:49:02.101Z,10.13
2022-10-13T05:51:33.458Z,10.05
2022-10-13T05:54:24.243Z,10.19
2022-10-13T05:57:02.650Z,10.15
2022-10-13T05:59:33.388Z,10.11
2022-10-13T06:02:02.296Z,10.13
2022-10-13T06:04:34.562Z,10.13
2022-10-13T06:07:00.958Z,10.15
2022-10-13T06:09:37.913Z,10.10
2022-10-13T06:12:05.450Z,10.14
2022-10-13T06:14:31.884Z,10.15
2022-10-13T06:16:58.460Z,10.22
2022-10-13T06:19:24.858Z,10.16
2022-10-13T06:21:51.374Z,10.19
2022-10-13T06:24:17.971Z,10.26
2022-10-13T06:26:44.282Z,10.29
2022-10-13T06:29:10.700Z,10.27
2022-10-13T06:31:37.179Z,10.31
2022-10-13T06:34:09.635Z,10.22
2022-10-13T06:36:36.288Z,10.22
2022-10-13T06:39:02.626Z,10.28
2022-10-13T06:41:28.959Z,10.31
2022-10-13T06:43:55.299Z,10.23
2022-10-13T06:46:21.799Z,10.36
2022-10-13T06:48:51.801Z,10.41
2022-10-13T06:51:18.532Z,10.35
2022-10-13T06:53:45.136Z,10.40
2022-10-13T06:56:11.480Z,10.61
2022-10-13T06:58:38.466Z,10.55
2022-10-13T07:01:06.430Z,10.62
2022-10-13T07:03:33.564Z,10.69
2022-10-13T07:06:05.630Z,10.74
2022-10-13T07:08:33.025Z,10.71
2022-10-13T07:10:59.854Z,10.63
2022-10-13T07:13:26.248Z,10.75
2022-10-13T07:15:52.625Z,10.79
2022-10-13T07:18:19.050Z,10.84
2022-10-13T07:20:45.399Z,10.75
2022-10-13T07:23:11.740Z,10.67
2022-10-13T07:25:38.107Z,10.66
2022-10-13T07:28:04.522Z,10.67
2022-10-13T07:30:30.898Z,10.76
2022-10-13T07:32:57.300Z,10.81
2022-10-13T07:35:30.290Z,10.83
2022-10-13T07:37:57.193Z,10.97
2022-10-13T07:40:23.919Z,10.87
2022-10-13T07:42:50.401Z,10.92
2022-10-13T07:45:16.971Z,10.87
2022-10-13T07:47:43.318Z,10.80
2022-10-13T07:50:10.443Z,10.91
2022-10-13T07:52:37.093Z,11.00
2022-10-13T07:55:03.929Z,11.11
2022-10-13T07:57:30.315Z,11.08
2022-10-13T07:59:56.656Z,11.11
2022-10-13T08:02:23.019Z,11.28
2022-10-13T08:04:49.356Z,11.32
2022-10-13T08:07:16.806Z,11.38
2022-10-13T08:09:43.926Z,11.44
2022-10-13T08:12:10.768Z,11.43
2022-10-13T08:14:37.288Z,11.42
2022-10-13T08:17:03.699Z,11.57
2022-10-13T08:19:30.165Z,11.65
2022-10-13T08:21:58.619Z,11.53
2022-10-13T08:24:26.479Z,11.57
2022-10-13T08:26:52.959Z,11.61
2022-10-13T08:29:22.496Z,11.67
2022-10-13T08:31:50.927Z,11.76
2022-10-13T08:34:17.518Z,11.82
2022-10-13T08:36:44.019Z,11.65
2022-10-13T08:39:10.688Z,11.57
2022-10-13T08:41:40.816Z,11.64
2022-10-13T08:45:10.449Z,11.80
2022-10-13T08:47:44.203Z,11.87
2022-10-13T08:50:16.519Z,11.94
2022-10-13T08:52:51.564Z,12.06
2022-10-13T08:55:33.274Z,12.03
2022-10-13T08:58:01.858Z,11.86
2022-10-13T09:00:29.505Z,11.85
2022-10-13T09:03:38.561Z,11.87
2022-10-13T09:06:16.430Z,11.66
2022-10-13T09:08:49.923Z,11.62
2022-10-13T09:11:16.818Z,11.68
2022-10-13T09:13:43.460Z,11.72
2022-10-13T09:16:09.871Z,11.76
2022-10-13T09:18:37.496Z,11.74
2022-10-13T09:21:09.894Z,11.85
2022-10-13T09:23:39.565Z,11.82
2022-10-13T09:26:15.768Z,11.82
2022-10-13T09:28:42.665Z,11.93
2022-10-13T09:31:24.506Z,12.19
2022-10-13T09:34:15.002Z,12.24
2022-10-13T09:37:01.797Z,12.27
2022-10-13T09:39:28.207Z,12.19
2022-10-13T09:42:22.786Z,12.31
2022-10-13T09:44:58.488Z,12.40
2022-10-13T09:47:27.195Z,12.40
2022-10-13T09:50:20.565Z,12.36
2022-10-13T09:52:47.838Z,12.37
2022-10-13T09:55:33.072Z,12.54
2022-10-13T09:58:12.847Z,12.50
2022-10-13T10:00:40.177Z,12.35
2022-10-13T10:03:32.553Z,12.48
2022-10-13T10:06:14.477Z,12.56
2022-10-13T10:09:02.797Z,12.50
2022-10-13T10:11:42.226Z,12.37
2022-10-13T10:14:28.740Z,12.50
2022-10-13T10:17:20.811Z,12.64
2022-10-13T10:20:16.740Z,12.88
2022-10-13T10:23:04.660Z,12.74
2022-10-13T10:25:51.067Z,12.62
2022-10-13T10:28:39.773Z,12.68
2022-10-13T10:31:18.997Z,12.57
2022-10-13T10:34:03.712Z,12.66
2022-10-13T10:36:50.520Z,12.78
2022-10-13T10:39:46.221Z,12.90
2022-10-13T10:42:26.048Z,12.82
2022-10-13T10:44:54.861Z,12.74
2022-10-13T10:47:26.897Z,12.86
2022-10-13T10:50:01.402Z,12.61
2022-10-13T10:52:47.967Z,12.76
2022-10-13T10:55:26.027Z,12.68
2022-10-13T10:58:04.412Z,12.69
2022-10-13T11:00:39.092Z,12.71
2022-10-13T11:03:33.472Z,12.71
2022-10-13T11:06:05.701Z,12.64
2022-10-13T11:08:38.014Z,12.71
2022-10-13T11:11:26.574Z,12.62
2022-10-13T11:14:02.134Z,12.54
2022-10-13T11:16:49.879Z,12.54
2022-10-13T11:19:39.539Z,12.66
2022-10-13T11:22:05.853Z,12.93
2022-10-13T11:24:35.111Z,13.05
2022-10-13T11:27:19.571Z,13.14
2022-10-13T11:29:46.554Z,13.25
2022-10-13T11:32:30.292Z,13.03
2022-10-13T11:35:19.938Z,12.98
2022-10-13T11:38:07.633Z,12.93
2022-10-13T11:41:06.811Z,13.11
2022-10-13T11:44:06.455Z,13.08
2022-10-13T11:46:56.846Z,13.10
2022-10-13T11:49:48.707Z,13.24
2022-10-13T11:52:31.364Z,13.20
2022-10-13T11:55:15.094Z,13.27
2022-10-13T11:57:41.537Z,13.11
2022-10-13T12:00:15.984Z,13.11
2022-10-13T12:02:50.698Z,13.29
2022-10-13T12:05:26.262Z,13.27
2022-10-13T12:07:56.926Z,13.44
2022-10-13T12:10:37.843Z,13.68
2022-10-13T12:13:05.193Z,13.49
2022-10-13T12:15:37.523Z,13.48
2022-10-13T12:18:23.970Z,13.33
2022-10-13T12:20:56.507Z,13.48
2022-10-13T12:23:22.975Z,13.56
2022-10-13T12:25:56.482Z,13.69
2022-10-13T12:28:23.883Z,13.88
2022-10-13T12:30:57.096Z,14.00
2022-10-13T12:33:28.897Z,13.77
2022-10-13T12:35:55.826Z,13.89
2022-10-13T12:38:23.072Z,14.12
2022-10-13T12:40:51.198Z,14.30
2022-10-13T12:43:22.122Z,14.22
2022-10-13T12:45:48.588Z,14.48
2022-10-13T12:48:36.138Z,15.05
2022-10-13T12:51:24.076Z,14.84
2022-10-13T12:53:50.552Z,14.72
2022-10-13T12:56:31.005Z,14.54
2022-10-13T12:58:58.570Z,14.70
2022-10-13T13:01:35.117Z,14.74
2022-10-13T13:04:21.027Z,14.46
2022-10-13T13:07:05.449Z,14.30
2022-10-13T13:09:34.064Z,14.23
2022-10-13T13:12:04.770Z,14.17
2022-10-13T13:14:38.336Z,14.16
2022-10-13T13:20:32.172Z,14.06
2022-10-13T13:22:58.940Z,13.95
2022-10-13T13:25:25.338Z,13.91
2022-10-13T13:27:52.006Z,13.90
2022-10-13T13:30:21.698Z,13.94
2022-10-13T13:32:48.226Z,14.00
2022-10-13T13:35:14.714Z,14.04
2022-10-13T13:37:50.941Z,14.02
2022-10-13T13:40:27.988Z,14.01
2022-10-13T13:42:56.499Z,13.90
2022-10-13T13:45:26.786Z,13.89
2022-10-13T13:47:56.758Z,13.82
2022-10-13T13:50:28.667Z,13.83
2022-10-13T13:52:55.009Z,13.82
2022-10-13T13:55:22.417Z,13.81
2022-10-13T13:57:48.818Z,13.89
2022-10-13T14:00:16.831Z,13.95
2022-10-13T14:02:44.552Z,14.02
2022-10-13T14:05:12.268Z,14.03
2022-10-13T14:07:39.450Z,14.07
2022-10-13T14:10:07.233Z,14.07
2022-10-13T14:12:34.061Z,14.04
2022-10-13T14:15:00.450Z,14.03
2022-10-13T14:17:27.987Z,14.00
2022-10-13T14:19:54.931Z,14.01
2022-10-13T14:22:23.050Z,14.00
2022-10-13T14:24:49.641Z,13.97
2022-10-13T14:27:16.405Z,13.85
2022-10-13T14:29:42.908Z,13.79
2022-10-13T14:32:09.382Z,13.75
2022-10-13T14:34:35.873Z,13.69
2022-10-13T14:37:02.353Z,13.64
2022-10-13T14:39:28.963Z,13.61
2022-10-13T14:41:55.440Z,13.58
2022-10-13T14:44:21.961Z,13.58
2022-10-13T14:46:48.431Z,13.58
2022-10-13T14:49:14.850Z,13.60
2022-10-13T14:51:42.314Z,13.56
2022-10-13T14:54:08.940Z,13.55
2022-10-13T14:56:35.916Z,13.51
2022-10-13T14:59:05.119Z,13.50
2022-10-13T15:01:33.369Z,13.54
2022-10-13T15:04:03.351Z,13.55
2022-10-13T15:06:31.981Z,13.59
2022-10-13T15:08:58.554Z,13.65
2022-10-13T15:11:26.765Z,13.74
2022-10-13T15:13:53.457Z,13.75
2022-10-13T15:16:32.538Z,13.81
2022-10-13T15:18:59.301Z,13.72
2022-10-13T15:21:26.865Z,13.71
2022-10-13T15:23:53.228Z,13.65
2022-10-13T15:26:20.275Z,13.56
2022-10-13T15:28:49.732Z,13.55
2022-10-13T15:31:17.757Z,13.54
2022-10-13T15:33:46.767Z,13.48
2022-10-13T15:36:13.205Z,13.47
2022-10-13T15:38:39.822Z,13.46
2022-10-13T15:41:06.879Z,13.44
2022-10-13T15:43:34.255Z,13.42
2022-10-13T15:46:04.019Z,13.37
2022-10-13T15:48:31.805Z,13.29
2022-10-13T15:50:58.283Z,13.22
2022-10-13T15:53:24.880Z,13.15
2022-10-13T15:55:51.324Z,13.11
2022-10-13T15:58:17.883Z,13.03
2022-10-13T16:00:44.825Z,13.03
2022-10-13T16:03:16.457Z,12.95
2022-10-13T16:05:44.187Z,12.79
2022-10-13T16:08:10.770Z,12.74
2022-10-13T16:10:42.083Z,12.61
2022-10-13T16:13:12.341Z,12.53
2022-10-13T16:15:38.848Z,12.44
2022-10-13T16:18:05.468Z,12.34
2022-10-13T16:20:37.570Z,12.29
2022-10-13T16:23:04.616Z,12.20
2022-10-13T16:25:31.945Z,12.12
2022-10-13T16:27:59.370Z,12.09
2022-10-13T16:30:25.883Z,12.01
2022-10-13T16:32:52.218Z,12.04
2022-10-13T16:35:18.580Z,12.05
2022-10-13T16:37:44.891Z,12.04
2022-10-13T16:40:11.300Z,12.00
2022-10-13T16:42:37.752Z,11.98
2022-10-13T16:45:04.751Z,11.94
2022-10-13T16:47:32.119Z,11.91
2022-10-13T16:49:58.454Z,11.89
2022-10-13T16:52:24.815Z,11.76
2022-10-13T16:54:51.251Z,11.76
2022-10-13T16:57:17.912Z,11.71
2022-10-13T16:59:44.382Z,11.69
2022-10-13T17:02:14.353Z,11.62
2022-10-13T17:04:41.224Z,11.62
2022-10-13T17:07:07.946Z,11.55
2022-10-13T17:09:34.465Z,11.52
2022-10-13T17:12:01.187Z,11.48
2022-10-13T17:14:27.676Z,11.43
2022-10-13T17:16:57.783Z,11.43
2022-10-13T17:19:25.065Z,11.48
2022-10-13T17:21:51.495Z,11.46
2022-10-13T17:24:17.966Z,11.42
2022-10-13T17:26:44.374Z,11.36
2022-10-13T17:29:10.789Z,11.34
2022-10-13T17:31:37.836Z,11.28
2022-10-13T17:34:05.965Z,11.27
2022-10-13T17:36:33.910Z,11.24
2022-10-13T17:39:06.782Z,11.26
2022-10-13T17:41:33.855Z,11.26
2022-10-13T17:44:00.582Z,11.24
2022-10-13T17:46:38.772Z,11.22
2022-10-13T17:49:09.135Z,11.24
2022-10-13T17:51:35.611Z,11.25
2022-10-13T17:54:02.331Z,11.21
2022-10-13T17:56:28.990Z,11.22
2022-10-13T17:58:55.616Z,11.22
2022-10-13T18:01:28.254Z,11.20
2022-10-13T18:03:57.461Z,11.13
2022-10-13T18:06:24.118Z,11.11
2022-10-13T18:08:50.727Z,11.06
2022-10-13T18:11:19.275Z,10.99
2022-10-13T18:13:46.214Z,10.95
2022-10-13T18:16:17.166Z,10.91
2022-10-13T18:18:44.924Z,10.91
2022-10-13T18:21:13.720Z,10.81
2022-10-13T18:23:41.810Z,10.72
2022-10-13T18:26:12.027Z,10.71
2022-10-13T18:28:45.411Z,10.69
2022-10-13T18:31:20.565Z,10.71
2022-10-13T18:33:47.850Z,10.72
2022-10-13T18:36:20.017Z,10.70
2022-10-13T18:38:47.422Z,10.69
2022-10-13T18:41:15.108Z,10.72
2022-10-13T18:43:41.550Z,10.74
2022-10-13T18:46:08.398Z,10.76
2022-10-13T18:48:35.781Z,10.79
2022-10-13T18:51:10.323Z,10.77
2022-10-13T18:53:38.409Z,10.71
2022-10-13T18:56:16.167Z,10.65
2022-10-13T18:58:42.815Z,10.54
2022-10-13T19:01:12.213Z,10.42
2022-10-13T19:03:40.187Z,10.25
2022-10-13T19:06:09.695Z,10.26
2022-10-13T19:08:36.823Z,10.12
2022-10-13T19:11:21.984Z,10.08
2022-10-13T19:13:50.303Z,10.02
2022-10-13T19:16:19.907Z,10.01
2022-10-13T19:18:47.166Z,10.03
2022-10-13T19:21:13.716Z,10.03
2022-10-13T19:23:41.186Z,10.09
2022-10-13T19:26:15.678Z,10.14
2022-10-13T19:28:43.074Z,10.25
2022-10-13T19:31:14.231Z,10.36
2022-10-13T19:33:44.759Z,10.44
2022-10-13T19:36:19.241Z,10.55
2022-10-13T19:38:45.596Z,10.61
2022-10-13T19:41:12.084Z,10.64
2022-10-13T19:43:38.418Z,10.66
2022-10-13T19:46:07.067Z,10.69
2022-10-13T19:48:33.916Z,10.71
2022-10-13T19:51:01.588Z,10.78
2022-10-13T19:53:28.020Z,10.82
2022-10-13T19:55:54.454Z,10.77
2022-10-13T19:58:23.773Z,10.75
2022-10-13T20:00:50.176Z,10.69
2022-10-13T20:03:16.974Z,10.58
2022-10-13T20:05:43.677Z,10.53
2022-10-13T20:08:11.518Z,10.53
2022-10-13T20:10:43.003Z,10.45
2022-10-13T20:13:10.824Z,10.38
2022-10-13T20:15:42.656Z,10.37
2022-10-13T20:18:12.898Z,10.37
2022-10-13T20:20:40.423Z,10.33
2022-10-13T20:23:07.615Z,10.32
2022-10-13T20:25:37.938Z,10.31
2022-10-13T20:28:05.512Z,10.29
2022-10-13T20:30:32.731Z,10.23
2022-10-13T20:33:00.648Z,10.18
2022-10-13T20:35:27.655Z,10.20
2022-10-13T20:37:54.047Z,10.18
2022-10-13T20:40:20.471Z,10.14
2022-10-13T20:42:51.718Z,10.16
2022-10-13T20:45:18.869Z,10.26
2022-10-13T20:47:46.665Z,10.44
2022-10-13T20:50:13.048Z,10.41
2022-10-13T20:52:40.502Z,10.33
2022-10-13T20:55:07.105Z,10.34
2022-10-13T20:57:33.552Z,10.35
2022-10-13T20:59:59.963Z,10.38
2022-10-13T21:02:26.412Z,10.38
2022-10-13T21:04:52.943Z,10.42
2022-10-13T21:07:19.765Z,10.42
2022-10-13T21:09:50.195Z,10.46
2022-10-13T21:12:19.215Z,10.40
2022-10-13T21:14:45.557Z,10.48
2022-10-13T21:17:11.973Z,10.49
2022-10-13T21:19:38.389Z,10.46
2022-10-13T21:22:04.770Z,10.47
2022-10-13T21:24:31.236Z,10.47
2022-10-13T21:26:57.766Z,10.54
2022-10-13T21:29:24.366Z,10.54
2022-10-13T21:31:50.802Z,10.52
2022-10-13T21:34:17.303Z,10.54
2022-10-13T21:36:44.851Z,10.51
2022-10-13T21:39:11.510Z,10.58
2022-10-13T21:41:37.895Z,10.69
2022-10-13T21:44:04.324Z,10.68
2022-10-13T21:46:33.305Z,10.70
2022-10-13T21:49:02.360Z,10.70
2022-10-13T21:51:39.341Z,10.58
2022-10-13T21:54:11.414Z,10.61
2022-10-13T21:56:39.698Z,10.54
2022-10-13T21:59:06.815Z,10.53
2022-10-13T22:01:34.172Z,10.51
2022-10-13T22:04:01.586Z,10.49
2022-10-13T22:06:29.764Z,10.52
2022-10-13T22:08:57.742Z,10.55
2022-10-13T22:11:27.250Z,10.56
2022-10-13T22:13:56.332Z,10.58
2022-10-13T22:16:31.226Z,10.54
2022-10-13T22:18:58.390Z,10.57
2022-10-13T22:21:28.111Z,10.60
2022-10-13T22:24:00.055Z,10.61
2022-10-13T22:26:28.418Z,10.64
2022-10-13T22:28:57.155Z,10.67
2022-10-13T22:31:23.661Z,10.69
2022-10-13T22:33:53.455Z,10.67
2022-10-13T22:36:24.879Z,10.58
2022-10-13T22:38:54.095Z,10.48
2022-10-13T22:41:21.455Z,10.43
2022-10-13T22:43:56.054Z,10.33
2022-10-13T22:46:24.996Z,10.30
2022-10-13T22:48:51.514Z,10.21
2022-10-13T22:51:23.250Z,10.13
2022-10-13T22:53:50.428Z,10.11
2022-10-13T22:56:23.751Z,10.16
2022-10-13T22:58:55.887Z,10.16
2022-10-13T23:01:23.106Z,10.09
2022-10-13T23:03:51.385Z,10.28
2022-10-13T23:06:20.866Z,10.31
2022-10-13T23:08:47.415Z,10.29
2022-10-13T23:11:14.051Z,10.28
2022-10-13T23:13:40.544Z,10.28
2022-10-13T23:16:10.350Z,10.25
2022-10-13T23:18:37.139Z,10.23
2022-10-13T23:21:08.708Z,10.22
2022-10-13T23:23:35.462Z,10.23
2022-10-13T23:26:06.376Z,10.24
2022-10-13T23:28:34.616Z,10.13
2022-10-13T23:31:03.270Z,10.09
2022-10-13T23:33:30.171Z,10.05
2022-10-13T23:35:57.967Z,10.14
2022-10-13T23:38:25.652Z,10.13
2022-10-13T23:40:52.385Z,10.19
2022-10-13T23:43:19.658Z,10.14
2022-10-13T23:45:46.306Z,10.21
2022-10-13T23:48:12.722Z,10.24
2022-10-13T23:50:39.079Z,10.22
2022-10-13T23:53:05.501Z,10.22
2022-10-13T23:55:31.860Z,10.25
2022-10-13T23:57:58.189Z,10.29
